»·PEaware :: N172KA KPRC-KSJC

N172KA :: KPRC-KSJC

FLIGHT INFORMATION

Flight Status: Arrived
Operator: Privately registered:
United States
More flights under this callsign
Pilot: Tomas M. (4063)
Aircraft: CIRRUS SR-22 TURBO
(S22T)
More flights by this aircraft type
Origin: KPRC Love
United States
Destination: KSJC Mineta San Jose Intl
United States
More flights between these airports :: More routes between these airports
Route: FRA V230 SNS
File this flight plan on PilotEdge
Remarks:
Altitude:
(Current/Filed)
24,000ft
Speed:
(Current/Filed)
205kts
Departed: 15-Jul-23 03:53 PM
Arrived: 15-Jul-23 06:35 PM
Distance/Time
Traveled:
489nm/2:42
Distance/Time
To Go:
Arrived

Flight Plot

Page will automatically refresh every two minutes.

Flight plan parsing failed; only flown route is shown


Map Options




Map Legend


Flown Route
Filed Route
Departure Airport
Arrival Airport
Navaid (VOR, NDB)
Fix

Horizontal Profiles

Position Reports

Time Latitude Longitude Heading Altitude Ground
Speed
15-Jul-23 15:43 34.653853 -112.422583 130 4990ft 0kts
15-Jul-23 15:44 34.653853 -112.422583 130 4990ft 0kts
15-Jul-23 15:45 34.653853 -112.422583 130 4990ft 0kts
15-Jul-23 15:46 34.653853 -112.422583 130 4990ft 0kts
15-Jul-23 15:47 34.654126 -112.421869 41 4989ft 10kts
15-Jul-23 15:48 34.656520 -112.418773 42 4975ft 17kts
15-Jul-23 15:48 34.660165 -112.414890 41 4958ft 19kts
15-Jul-23 15:49 34.662696 -112.412120 134 4945ft 0kts
15-Jul-23 15:51 34.662696 -112.412120 134 4945ft 0kts
15-Jul-23 15:52 34.662432 -112.411787 133 4947ft 12kts
15-Jul-23 15:52 34.652655 -112.421606 218 5177ft 100kts
15-Jul-23 15:53 34.626490 -112.443534 210 6196ft 128kts
15-Jul-23 15:54 34.595191 -112.468408 211 7108ft 139kts
15-Jul-23 15:55 34.562281 -112.493978 211 8077ft 142kts
15-Jul-23 15:57 34.520308 -112.525887 211 8997ft 158kts
15-Jul-23 15:57 34.488601 -112.548258 187 9680ft 159kts
15-Jul-23 15:58 34.484360 -112.515250 7 10639ft 154kts
15-Jul-23 15:59 34.527288 -112.508530 6 11563ft 157kts
15-Jul-23 16:00 34.570372 -112.501646 7 12333ft 158kts
15-Jul-23 16:01 34.614205 -112.494603 7 13017ft 160kts
15-Jul-23 16:02 34.658657 -112.487445 7 13768ft 163kts
15-Jul-23 16:03 34.702955 -112.487702 312 14525ft 167kts
15-Jul-23 16:04 34.722001 -112.540128 292 15140ft 174kts
15-Jul-23 16:05 34.740886 -112.597415 292 15401ft 187kts
15-Jul-23 16:06 34.759770 -112.655175 291 15883ft 180kts
15-Jul-23 16:07 34.777895 -112.710754 291 16572ft 168kts
15-Jul-23 16:08 34.794756 -112.762627 291 17414ft 165kts
15-Jul-23 16:09 34.811915 -112.815389 291 18302ft 170kts
15-Jul-23 16:10 34.829087 -112.868375 292 19316ft 167kts
15-Jul-23 16:11 34.846464 -112.921971 292 20015ft 170kts
15-Jul-23 16:12 34.863994 -112.976195 292 20711ft 172kts
15-Jul-23 16:13 34.881806 -113.031362 292 21355ft 176kts
15-Jul-23 16:14 34.899783 -113.087185 292 22049ft 180kts
15-Jul-23 16:15 34.917999 -113.143855 292 23084ft 179kts
15-Jul-23 16:16 34.936509 -113.201485 292 23705ft 189kts
15-Jul-23 16:17 34.956537 -113.264002 293 24171ft 206kts
15-Jul-23 16:18 34.977610 -113.329889 293 24165ft 210kts
15-Jul-23 16:19 35.002051 -113.394954 303 24165ft 209kts
15-Jul-23 16:20 35.032017 -113.456165 302 24164ft 209kts
15-Jul-23 16:21 35.061879 -113.517303 302 24164ft 209kts
15-Jul-23 16:22 35.091745 -113.578586 302 24163ft 209kts
15-Jul-23 16:23 35.121605 -113.639948 302 24166ft 209kts
15-Jul-23 16:24 35.151442 -113.701379 302 24165ft 209kts
15-Jul-23 16:25 35.181081 -113.762508 302 24165ft 208kts
15-Jul-23 16:26 35.210632 -113.823564 302 24165ft 208kts
15-Jul-23 16:27 35.240123 -113.884605 301 24165ft 207kts
15-Jul-23 16:28 35.269638 -113.945802 301 24165ft 207kts
15-Jul-23 16:29 35.298950 -114.006688 301 24163ft 207kts
15-Jul-23 16:30 35.328484 -114.068132 301 24075ft 210kts
15-Jul-23 16:31 35.358116 -114.129903 301 23980ft 211kts
15-Jul-23 16:32 35.388076 -114.192469 301 23897ft 211kts
15-Jul-23 16:33 35.417921 -114.254908 301 23841ft 210kts
15-Jul-23 16:34 35.447251 -114.316385 301 23864ft 207kts
15-Jul-23 16:35 35.476441 -114.377674 301 23888ft 207kts
15-Jul-23 16:36 35.505591 -114.438988 301 23912ft 207kts
15-Jul-23 16:37 35.534603 -114.500120 301 23927ft 207kts
15-Jul-23 16:38 35.563715 -114.561573 301 23926ft 207kts
15-Jul-23 16:39 35.592830 -114.623144 301 23926ft 208kts
15-Jul-23 16:40 35.621943 -114.684819 301 23926ft 208kts
15-Jul-23 16:41 35.651023 -114.746540 301 23926ft 208kts
15-Jul-23 16:42 35.680080 -114.808321 301 23926ft 208kts
15-Jul-23 16:43 35.709133 -114.870206 301 23925ft 208kts
15-Jul-23 16:44 35.738088 -114.931995 301 23925ft 207kts
15-Jul-23 16:45 35.766707 -114.993181 301 23930ft 204kts
15-Jul-23 16:46 35.794908 -115.053578 301 23948ft 202kts
15-Jul-23 16:47 35.823165 -115.114205 301 23966ft 206kts
15-Jul-23 16:48 35.851911 -115.175989 301 23981ft 208kts
15-Jul-23 16:49 35.880931 -115.238478 301 23986ft 210kts
15-Jul-23 16:50 35.909927 -115.301030 301 23982ft 210kts
15-Jul-23 16:51 35.939180 -115.364257 301 23979ft 210kts
15-Jul-23 16:52 35.968243 -115.427191 301 23975ft 210kts
15-Jul-23 16:53 35.997211 -115.490036 301 23972ft 210kts
15-Jul-23 16:54 36.026082 -115.552782 301 23971ft 209kts
15-Jul-23 16:55 36.054929 -115.615603 301 23971ft 208kts
15-Jul-23 16:56 36.083625 -115.678204 300 23970ft 208kts
15-Jul-23 16:57 36.112233 -115.740730 300 23973ft 208kts
15-Jul-23 16:58 36.140904 -115.803514 300 23973ft 209kts
15-Jul-23 16:59 36.169483 -115.866213 300 23973ft 209kts
15-Jul-23 17:00 36.198045 -115.928991 300 23973ft 209kts
15-Jul-23 17:01 36.226669 -115.992024 300 23980ft 209kts
15-Jul-23 17:02 36.255326 -116.055249 300 23987ft 209kts
15-Jul-23 17:03 36.283831 -116.118259 300 23994ft 209kts
15-Jul-23 17:04 36.312201 -116.181087 300 24000ft 209kts
15-Jul-23 17:05 36.340549 -116.243962 300 24000ft 209kts
15-Jul-23 17:06 36.368865 -116.306931 300 24000ft 209kts
15-Jul-23 17:07 36.396983 -116.369557 300 23999ft 206kts
15-Jul-23 17:08 36.424887 -116.431822 300 24000ft 206kts
15-Jul-23 17:09 36.452678 -116.493952 300 24000ft 206kts
15-Jul-23 17:10 36.480487 -116.556238 300 24000ft 205kts
15-Jul-23 17:11 36.508253 -116.618523 300 24002ft 205kts
15-Jul-23 17:12 36.535884 -116.680667 299 24005ft 205kts
15-Jul-23 17:13 36.563423 -116.742703 299 24008ft 204kts
15-Jul-23 17:14 36.574171 -116.812453 279 24010ft 206kts
15-Jul-23 17:15 36.582670 -116.883333 279 24011ft 206kts
15-Jul-23 17:16 36.591116 -116.954160 279 24021ft 206kts
15-Jul-23 17:17 36.599539 -117.025235 279 24034ft 206kts
15-Jul-23 17:18 36.607894 -117.096076 279 24049ft 205kts
15-Jul-23 17:19 36.616165 -117.166341 278 24060ft 206kts
15-Jul-23 17:20 36.624416 -117.236895 278 24064ft 206kts
15-Jul-23 17:21 36.632662 -117.307718 278 24068ft 206kts
15-Jul-23 17:22 36.640839 -117.378220 278 24072ft 206kts
15-Jul-23 17:23 36.648999 -117.449133 278 24072ft 206kts
15-Jul-23 17:24 36.657134 -117.520121 278 24072ft 207kts
15-Jul-23 17:25 36.665188 -117.590781 278 24072ft 207kts
15-Jul-23 17:26 36.673250 -117.661823 277 24073ft 207kts
15-Jul-23 17:27 36.681260 -117.732920 277 24073ft 207kts
15-Jul-23 17:28 36.689244 -117.804133 277 24073ft 207kts
15-Jul-23 17:29 36.697178 -117.875275 277 24075ft 207kts
15-Jul-23 17:30 36.705087 -117.946598 277 24083ft 207kts
15-Jul-23 17:31 36.712960 -118.017778 277 24092ft 208kts
15-Jul-23 17:32 36.720776 -118.089253 277 24100ft 208kts
15-Jul-23 17:33 36.728622 -118.161229 277 24100ft 208kts
15-Jul-23 17:34 36.736395 -118.232931 277 24100ft 208kts
15-Jul-23 17:35 36.744159 -118.304955 277 24100ft 208kts
15-Jul-23 17:36 36.751835 -118.376581 277 24100ft 208kts
15-Jul-23 17:37 36.759483 -118.448366 277 24100ft 208kts
15-Jul-23 17:38 36.767063 -118.519953 277 24101ft 208kts
15-Jul-23 17:39 36.774610 -118.591610 277 24100ft 207kts
15-Jul-23 17:40 36.785588 -118.661841 292 24102ft 207kts
15-Jul-23 17:41 36.808920 -118.728150 292 24101ft 207kts
15-Jul-23 17:42 36.831780 -118.794168 292 24100ft 208kts
15-Jul-23 17:43 36.854684 -118.860677 292 24056ft 209kts
15-Jul-23 17:44 36.877708 -118.927668 292 23997ft 210kts
15-Jul-23 17:45 36.900675 -118.994624 291 23938ft 210kts
15-Jul-23 17:46 36.923541 -119.061461 291 23889ft 209kts
15-Jul-23 17:47 36.946358 -119.128299 291 23889ft 208kts
15-Jul-23 17:48 36.968966 -119.194673 291 23890ft 208kts
15-Jul-23 17:49 36.991593 -119.261247 291 23890ft 208kts
15-Jul-23 17:50 37.014135 -119.327723 291 23890ft 208kts
15-Jul-23 17:51 37.036801 -119.394708 291 23890ft 208kts
15-Jul-23 17:52 37.059264 -119.461240 291 23889ft 207kts
15-Jul-23 17:53 37.081644 -119.527688 291 23889ft 207kts
15-Jul-23 17:54 37.101997 -119.594921 262 23886ft 205kts
15-Jul-23 17:55 37.074547 -119.657509 238 23890ft 206kts
15-Jul-23 17:56 37.045015 -119.718989 237 23890ft 206kts
15-Jul-23 17:57 37.015452 -119.780318 237 23889ft 206kts
15-Jul-23 17:58 36.985827 -119.841650 237 23889ft 206kts
15-Jul-23 17:59 36.956036 -119.903211 237 23890ft 207kts
15-Jul-23 18:00 36.926057 -119.965046 237 23889ft 207kts
15-Jul-23 18:01 36.895864 -120.027261 237 23568ft 219kts
15-Jul-23 18:02 36.863145 -120.094499 237 22606ft 231kts
15-Jul-23 18:03 36.829444 -120.163606 236 21614ft 233kts
15-Jul-23 18:04 36.810677 -120.241165 255 20538ft 239kts
15-Jul-23 18:05 36.796454 -120.322623 255 19352ft 241kts
15-Jul-23 18:06 36.782048 -120.404614 255 18158ft 241kts
15-Jul-23 18:07 36.769029 -120.484221 270 17533ft 230kts
15-Jul-23 18:08 36.795895 -120.555155 297 17028ft 225kts
15-Jul-23 18:09 36.824987 -120.624329 297 16539ft 224kts
15-Jul-23 18:10 36.853032 -120.691102 296 16506ft 211kts
15-Jul-23 18:11 36.880192 -120.755906 296 16510ft 211kts
15-Jul-23 18:12 36.907520 -120.821230 296 16509ft 212kts
15-Jul-23 18:13 36.934809 -120.886577 296 16500ft 211kts
15-Jul-23 18:14 36.962026 -120.951897 296 16500ft 212kts
15-Jul-23 18:15 36.989249 -121.017359 295 16509ft 211kts
15-Jul-23 18:16 37.016283 -121.082501 295 16522ft 211kts
15-Jul-23 18:17 37.044369 -121.150313 296 15861ft 228kts
15-Jul-23 18:18 37.073750 -121.221356 296 14884ft 230kts
15-Jul-23 18:19 37.103010 -121.292316 296 13894ft 228kts
15-Jul-23 18:21 37.132412 -121.363778 296 12877ft 225kts
15-Jul-23 18:22 37.160940 -121.433295 295 11876ft 223kts
15-Jul-23 18:23 37.188826 -121.501391 295 10871ft 216kts
15-Jul-23 18:24 37.216038 -121.567937 295 9866ft 210kts
15-Jul-23 18:25 37.241993 -121.631579 295 8846ft 200kts
15-Jul-23 18:26 37.266959 -121.692971 294 7694ft 190kts
15-Jul-23 18:27 37.275222 -121.751520 275 6124ft 146kts
15-Jul-23 18:28 37.250127 -121.750781 92 5149ft 152kts
15-Jul-23 18:29 37.272798 -121.745578 288 4332ft 113kts
15-Jul-23 18:30 37.285288 -121.781628 292 3345ft 112kts
15-Jul-23 18:31 37.297176 -121.821991 287 2437ft 140kts
15-Jul-23 18:32 37.311146 -121.865336 295 1462ft 117kts
15-Jul-23 18:33 37.330550 -121.894847 317 794ft 104kts
15-Jul-23 18:34 37.351856 -121.917996 319 185ft 87kts
15-Jul-23 18:35 37.362293 -121.930678 225 49ft 6kts
15-Jul-23 18:36 37.361290 -121.933150 231 50ft 9kts
15-Jul-23 18:37 37.359911 -121.933395 143 51ft 0kts

Navigation Log

Ident Type
Flight plan parsing failed, navigation log unavailable